AUO weather

Auburn University Regional Airport
Auburn, Alabama, United States

Public forecast

Using degrees Fahrenheit for public forecast. Weather courtesy of forecast.io.

METAR (pilot weather report)

Retrieved 2019/05/25 19:56 UTC (28 minutes ago):

KAUO 251956Z AUTO 21007KT 10SM SCT065 33/18 A3016 RMK AO2 SLP219 T03330178

TAF (pilot weather forecast)

Closest forecast is Columbus Metropolitan Airport, 25.7 nm (47.7 km) ESE. Retrieved 2019/05/25 18:22 UTC (2 hours ago):

TAF KCSG 251720Z 2518/2618 30004KT P6SM FEW060 FM260500 00000KT P6SM SKC FM261600 29003KT P6SM FEW050